sensor_id;sensor_type;location;lat;lon;timestamp;pressure;altitude;pressure_sealevel;temperature;humidity
70971;BME280;58632;51.718;19.446;2023-12-28T00:02:03;99829.44;;;-0.54;100.00
70971;BME280;58632;51.718;19.446;2023-12-28T00:04:29;99826.83;;;-0.52;100.00
70971;BME280;58632;51.718;19.446;2023-12-28T00:06:55;99822.71;;;-0.50;100.00
70971;BME280;58632;51.718;19.446;2023-12-28T00:09:20;99817.65;;;-0.51;100.00
70971;BME280;58632;51.718;19.446;2023-12-28T00:11:45;99815.30;;;-0.53;100.00
70971;BME280;58632;51.718;19.446;2023-12-28T00:14:11;99802.23;;;-0.53;100.00
70971;BME280;58632;51.718;19.446;2023-12-28T00:16:36;99804.94;;;-0.52;100.00
70971;BME280;58632;51.718;19.446;2023-12-28T00:19:03;99802.00;;;-0.51;100.00
70971;BME280;58632;51.718;19.446;2023-12-28T00:21:29;99789.16;;;-0.49;100.00
70971;BME280;58632;51.718;19.446;2023-12-28T00:23:54;99788.39;;;-0.50;100.00
70971;BME280;58632;51.718;19.446;2023-12-28T00:26:20;99783.27;;;-0.51;100.00
70971;BME280;58632;51.718;19.446;2023-12-28T00:28:47;99773.16;;;-0.54;100.00
70971;BME280;58632;51.718;19.446;2023-12-28T00:31:12;99775.84;;;-0.55;100.00
70971;BME280;58632;51.718;19.446;2023-12-28T00:33:37;99768.67;;;-0.52;100.00
70971;BME280;58632;51.718;19.446;2023-12-28T00:36:03;99758.01;;;-0.49;100.00
70971;BME280;58632;51.718;19.446;2023-12-28T00:38:28;99751.02;;;-0.49;100.00
70971;BME280;58632;51.718;19.446;2023-12-28T00:40:54;99739.31;;;-0.51;100.00
70971;BME280;58632;51.718;19.446;2023-12-28T00:43:19;99729.20;;;-0.51;100.00
70971;BME280;58632;51.718;19.446;2023-12-28T00:45:45;99729.92;;;-0.49;100.00
70971;BME280;58632;51.718;19.446;2023-12-28T00:48:10;99727.54;;;-0.46;100.00
70971;BME280;58632;51.718;19.446;2023-12-28T00:50:35;99728.88;;;-0.42;100.00
70971;BME280;58632;51.718;19.446;2023-12-28T00:53:01;99724.95;;;-0.43;100.00
70971;BME280;58632;51.718;19.446;2023-12-28T00:55:26;99723.02;;;-0.42;100.00
70971;BME280;58632;51.718;19.446;2023-12-28T00:57:53;99722.24;;;-0.38;100.00
70971;BME280;58632;51.718;19.446;2023-12-28T01:00:18;99711.20;;;-0.36;100.00
70971;BME280;58632;51.718;19.446;2023-12-28T01:02:44;99711.19;;;-0.36;100.00
70971;BME280;58632;51.718;19.446;2023-12-28T01:05:12;99703.67;;;-0.35;100.00
70971;BME280;58632;51.718;19.446;2023-12-28T01:07:37;99705.14;;;-0.33;100.00
70971;BME280;58632;51.718;19.446;2023-12-28T01:10:03;99702.39;;;-0.34;100.00
70971;BME280;58632;51.718;19.446;2023-12-28T01:12:28;99700.41;;;-0.32;100.00
70971;BME280;58632;51.718;19.446;2023-12-28T01:14:54;99693.52;;;-0.28;100.00
70971;BME280;58632;51.718;19.446;2023-12-28T01:17:19;99683.71;;;-0.24;100.00
70971;BME280;58632;51.718;19.446;2023-12-28T01:19:45;99677.02;;;-0.20;100.00
70971;BME280;58632;51.718;19.446;2023-12-28T01:22:10;99675.02;;;-0.17;100.00
70971;BME280;58632;51.718;19.446;2023-12-28T01:24:35;99664.91;;;-0.15;100.00
70971;BME280;58632;51.718;19.446;2023-12-28T01:27:03;99660.15;;;-0.12;100.00
70971;BME280;58632;51.718;19.446;2023-12-28T01:29:29;99661.56;;;-0.15;100.00
70971;BME280;58632;51.718;19.446;2023-12-28T01:31:54;99661.13;;;-0.12;100.00
70971;BME280;58632;51.718;19.446;2023-12-28T01:34:19;99661.21;;;-0.08;100.00
70971;BME280;58632;51.718;19.446;2023-12-28T01:36:45;99656.98;;;-0.06;100.00
70971;BME280;58632;51.718;19.446;2023-12-28T01:39:10;99649.65;;;-0.08;100.00
70971;BME280;58632;51.718;19.446;2023-12-28T01:41:36;99652.14;;;-0.11;100.00
70971;BME280;58632;51.718;19.446;2023-12-28T01:44:01;99650.30;;;-0.12;100.00
70971;BME280;58632;51.718;19.446;2023-12-28T01:46:27;99652.33;;;-0.08;100.00
70971;BME280;58632;51.718;19.446;2023-12-28T01:48:52;99651.41;;;-0.03;100.00
70971;BME280;58632;51.718;19.446;2023-12-28T01:51:18;99655.89;;;0.05;100.00
70971;BME280;58632;51.718;19.446;2023-12-28T01:53:44;99653.25;;;0.11;100.00
70971;BME280;58632;51.718;19.446;2023-12-28T01:56:10;99656.52;;;0.16;100.00
70971;BME280;58632;51.718;19.446;2023-12-28T01:58:36;99656.94;;;0.20;100.00
70971;BME280;58632;51.718;19.446;2023-12-28T02:01:02;99658.41;;;0.22;100.00
70971;BME280;58632;51.718;19.446;2023-12-28T02:03:28;99651.84;;;0.22;100.00
70971;BME280;58632;51.718;19.446;2023-12-28T02:05:54;99647.61;;;0.19;100.00
70971;BME280;58632;51.718;19.446;2023-12-28T02:08:20;99635.89;;;0.16;100.00
70971;BME280;58632;51.718;19.446;2023-12-28T02:10:45;99633.88;;;0.13;100.00
70971;BME280;58632;51.718;19.446;2023-12-28T02:13:11;99633.99;;;0.07;100.00
70971;BME280;58632;51.718;19.446;2023-12-28T02:15:36;99627.05;;;0.01;100.00
70971;BME280;58632;51.718;19.446;2023-12-28T02:20:28;99608.73;;;-0.01;100.00
70971;BME280;58632;51.718;19.446;2023-12-28T02:22:54;99602.06;;;0.00;100.00
70971;BME280;58632;51.718;19.446;2023-12-28T02:25:22;99595.43;;;0.00;100.00
70971;BME280;58632;51.718;19.446;2023-12-28T02:27:48;99596.75;;;0.04;100.00
70971;BME280;58632;51.718;19.446;2023-12-28T02:30:17;99592.64;;;0.08;100.00
70971;BME280;58632;51.718;19.446;2023-12-28T02:35:32;99578.37;;;0.15;100.00
70971;BME280;58632;51.718;19.446;2023-12-28T02:37:58;99567.02;;;0.17;100.00
70971;BME280;58632;51.718;19.446;2023-12-28T02:40:24;99563.05;;;0.25;100.00
70971;BME280;58632;51.718;19.446;2023-12-28T02:42:50;99555.64;;;0.31;100.00
70971;BME280;58632;51.718;19.446;2023-12-28T02:45:16;99549.86;;;0.36;100.00
70971;BME280;58632;51.718;19.446;2023-12-28T02:47:42;99546.88;;;0.41;100.00
70971;BME280;58632;51.718;19.446;2023-12-28T02:50:09;99550.55;;;0.46;100.00
70971;BME280;58632;51.718;19.446;2023-12-28T02:52:34;99554.19;;;0.49;100.00
70971;BME280;58632;51.718;19.446;2023-12-28T02:55:02;99555.72;;;0.54;100.00
70971;BME280;58632;51.718;19.446;2023-12-28T02:57:28;99553.79;;;0.56;100.00
70971;BME280;58632;51.718;19.446;2023-12-28T02:59:53;99548.09;;;0.55;100.00
70971;BME280;58632;51.718;19.446;2023-12-28T03:02:19;99546.36;;;0.55;100.00
70971;BME280;58632;51.718;19.446;2023-12-28T03:04:44;99542.33;;;0.59;100.00
70971;BME280;58632;51.718;19.446;2023-12-28T03:07:10;99537.45;;;0.64;100.00
70971;BME280;58632;51.718;19.446;2023-12-28T03:09:35;99541.28;;;0.68;100.00
70971;BME280;58632;51.718;19.446;2023-12-28T03:12:03;99544.10;;;0.70;100.00
70971;BME280;58632;51.718;19.446;2023-12-28T03:14:29;99546.00;;;0.72;100.00
70971;BME280;58632;51.718;19.446;2023-12-28T03:16:54;99539.42;;;0.72;100.00
70971;BME280;58632;51.718;19.446;2023-12-28T03:19:20;99539.14;;;0.70;100.00
70971;BME280;58632;51.718;19.446;2023-12-28T03:21:45;99535.88;;;0.69;100.00
70971;BME280;58632;51.718;19.446;2023-12-28T03:24:11;99531.21;;;0.68;100.00
70971;BME280;58632;51.718;19.446;2023-12-28T03:26:38;99534.23;;;0.65;100.00
70971;BME280;58632;51.718;19.446;2023-12-28T03:29:05;99534.86;;;0.62;100.00
70971;BME280;58632;51.718;19.446;2023-12-28T03:31:30;99530.39;;;0.62;100.00
70971;BME280;58632;51.718;19.446;2023-12-28T03:33:56;99528.02;;;0.62;100.00
70971;BME280;58632;51.718;19.446;2023-12-28T03:36:21;99523.66;;;0.65;100.00
70971;BME280;58632;51.718;19.446;2023-12-28T03:38:48;99519.04;;;0.68;100.00
70971;BME280;58632;51.718;19.446;2023-12-28T03:41:17;99520.50;;;0.71;100.00
70971;BME280;58632;51.718;19.446;2023-12-28T03:43:46;99517.07;;;0.74;100.00
70971;BME280;58632;51.718;19.446;2023-12-28T03:46:11;99514.91;;;0.77;100.00
70971;BME280;58632;51.718;19.446;2023-12-28T03:48:39;99509.65;;;0.78;100.00
70971;BME280;58632;51.718;19.446;2023-12-28T03:51:05;99506.78;;;0.76;100.00
70971;BME280;58632;51.718;19.446;2023-12-28T03:53:31;99506.05;;;0.71;100.00
70971;BME280;58632;51.718;19.446;2023-12-28T03:55:59;99504.15;;;0.64;100.00
70971;BME280;58632;51.718;19.446;2023-12-28T03:58:25;99503.90;;;0.60;100.00
70971;BME280;58632;51.718;19.446;2023-12-28T04:00:50;99505.34;;;0.55;100.00
70971;BME280;58632;51.718;19.446;2023-12-28T04:03:16;99498.75;;;0.52;100.00
70971;BME280;58632;51.718;19.446;2023-12-28T04:05:42;99496.21;;;0.49;100.00
70971;BME280;58632;51.718;19.446;2023-12-28T04:08:10;99488.09;;;0.42;100.00
70971;BME280;58632;51.718;19.446;2023-12-28T04:10:36;99484.69;;;0.39;100.00
70971;BME280;58632;51.718;19.446;2023-12-28T04:13:04;99485.15;;;0.35;100.00
70971;BME280;58632;51.718;19.446;2023-12-28T04:15:29;99474.65;;;0.36;100.00
70971;BME280;58632;51.718;19.446;2023-12-28T04:17:57;99470.71;;;0.36;100.00
70971;BME280;58632;51.718;19.446;2023-12-28T04:20:23;99466.13;;;0.33;100.00
70971;BME280;58632;51.718;19.446;2023-12-28T04:22:48;99460.36;;;0.31;100.00
70971;BME280;58632;51.718;19.446;2023-12-28T04:25:14;99455.55;;;0.29;100.00
70971;BME280;58632;51.718;19.446;2023-12-28T04:27:41;99449.61;;;0.25;100.00
70971;BME280;58632;51.718;19.446;2023-12-28T04:30:07;99452.13;;;0.24;100.00
70971;BME280;58632;51.718;19.446;2023-12-28T04:32:33;99447.19;;;0.27;100.00
70971;BME280;58632;51.718;19.446;2023-12-28T04:35:00;99433.30;;;0.29;100.00
70971;BME280;58632;51.718;19.446;2023-12-28T04:37:25;99420.09;;;0.27;100.00
70971;BME280;58632;51.718;19.446;2023-12-28T04:39:52;99416.05;;;0.27;100.00
70971;BME280;58632;51.718;19.446;2023-12-28T04:42:18;99409.65;;;0.28;100.00
70971;BME280;58632;51.718;19.446;2023-12-28T04:44:44;99407.71;;;0.31;100.00
70971;BME280;58632;51.718;19.446;2023-12-28T04:47:09;99406.29;;;0.34;100.00
70971;BME280;58632;51.718;19.446;2023-12-28T04:49:39;99404.23;;;0.35;100.00
70971;BME280;58632;51.718;19.446;2023-12-28T04:52:04;99412.42;;;0.35;100.00
70971;BME280;58632;51.718;19.446;2023-12-28T04:54:30;99418.25;;;0.37;100.00
70971;BME280;58632;51.718;19.446;2023-12-28T04:57:00;99420.23;;;0.36;100.00
70971;BME280;58632;51.718;19.446;2023-12-28T04:59:25;99407.90;;;0.34;100.00
70971;BME280;58632;51.718;19.446;2023-12-28T05:01:53;99398.06;;;0.29;100.00
70971;BME280;58632;51.718;19.446;2023-12-28T05:04:19;99396.94;;;0.26;100.00
70971;BME280;58632;51.718;19.446;2023-12-28T05:06:44;99390.08;;;0.24;100.00
70971;BME280;58632;51.718;19.446;2023-12-28T05:09:10;99384.89;;;0.20;100.00
70971;BME280;58632;51.718;19.446;2023-12-28T05:11:37;99389.96;;;0.21;100.00
70971;BME280;58632;51.718;19.446;2023-12-28T05:14:03;99391.81;;;0.26;100.00
70971;BME280;58632;51.718;19.446;2023-12-28T05:16:28;99384.61;;;0.29;100.00
70971;BME280;58632;51.718;19.446;2023-12-28T05:18:56;99387.26;;;0.31;100.00
70971;BME280;58632;51.718;19.446;2023-12-28T05:21:24;99385.21;;;0.34;100.00
70971;BME280;58632;51.718;19.446;2023-12-28T05:23:52;99379.40;;;0.35;100.00
70971;BME280;58632;51.718;19.446;2023-12-28T05:26:17;99362.09;;;0.30;100.00
70971;BME280;58632;51.718;19.446;2023-12-28T05:28:43;99346.52;;;0.30;100.00
70971;BME280;58632;51.718;19.446;2023-12-28T05:31:08;99341.05;;;0.35;100.00
70971;BME280;58632;51.718;19.446;2023-12-28T05:33:34;99345.98;;;0.41;100.00
70971;BME280;58632;51.718;19.446;2023-12-28T05:36:02;99346.48;;;0.49;100.00
70971;BME280;58632;51.718;19.446;2023-12-28T05:38:27;99352.67;;;0.52;100.00
70971;BME280;58632;51.718;19.446;2023-12-28T05:40:52;99350.52;;;0.56;100.00
70971;BME280;58632;51.718;19.446;2023-12-28T05:43:18;99350.90;;;0.58;100.00
70971;BME280;58632;51.718;19.446;2023-12-28T05:45:43;99351.82;;;0.60;100.00
70971;BME280;58632;51.718;19.446;2023-12-28T05:48:08;99354.80;;;0.61;100.00
70971;BME280;58632;51.718;19.446;2023-12-28T05:50:34;99353.88;;;0.62;100.00
70971;BME280;58632;51.718;19.446;2023-12-28T05:53:02;99356.04;;;0.66;100.00
70971;BME280;58632;51.718;19.446;2023-12-28T05:55:27;99354.70;;;0.72;100.00
70971;BME280;58632;51.718;19.446;2023-12-28T05:57:53;99358.15;;;0.75;100.00
70971;BME280;58632;51.718;19.446;2023-12-28T06:00:18;99352.94;;;0.79;100.00
70971;BME280;58632;51.718;19.446;2023-12-28T06:02:44;99350.52;;;0.80;100.00
70971;BME280;58632;51.718;19.446;2023-12-28T06:05:12;99352.23;;;0.80;100.00
70971;BME280;58632;51.718;19.446;2023-12-28T06:07:37;99347.11;;;0.82;100.00
70971;BME280;58632;51.718;19.446;2023-12-28T06:10:03;99343.08;;;0.83;100.00
70971;BME280;58632;51.718;19.446;2023-12-28T06:12:29;99334.08;;;0.83;100.00
70971;BME280;58632;51.718;19.446;2023-12-28T06:14:55;99332.83;;;0.82;100.00
70971;BME280;58632;51.718;19.446;2023-12-28T06:17:20;99343.50;;;0.83;100.00
70971;BME280;58632;51.718;19.446;2023-12-28T06:19:48;99348.46;;;0.87;100.00
70971;BME280;58632;51.718;19.446;2023-12-28T06:22:15;99350.95;;;0.90;100.00
70971;BME280;58632;51.718;19.446;2023-12-28T06:24:40;99354.78;;;0.92;100.00
70971;BME280;58632;51.718;19.446;2023-12-28T06:27:06;99355.42;;;0.94;100.00
70971;BME280;58632;51.718;19.446;2023-12-28T06:29:31;99359.67;;;0.94;100.00
70971;BME280;58632;51.718;19.446;2023-12-28T06:31:57;99355.27;;;0.93;100.00
70971;BME280;58632;51.718;19.446;2023-12-28T06:34:22;99358.88;;;0.90;100.00
70971;BME280;58632;51.718;19.446;2023-12-28T06:36:47;99365.39;;;0.87;100.00
70971;BME280;58632;51.718;19.446;2023-12-28T06:39:13;99373.64;;;0.85;100.00
70971;BME280;58632;51.718;19.446;2023-12-28T06:41:38;99366.20;;;0.84;100.00
70971;BME280;58632;51.718;19.446;2023-12-28T06:44:04;99375.10;;;0.81;100.00
70971;BME280;58632;51.718;19.446;2023-12-28T06:46:29;99380.73;;;0.78;100.00
70971;BME280;58632;51.718;19.446;2023-12-28T06:48:55;99378.73;;;0.75;100.00
70971;BME280;58632;51.718;19.446;2023-12-28T06:51:20;99382.48;;;0.78;100.00
70971;BME280;58632;51.718;19.446;2023-12-28T06:53:47;99380.55;;;0.82;100.00
70971;BME280;58632;51.718;19.446;2023-12-28T06:56:13;99381.30;;;0.87;100.00
70971;BME280;58632;51.718;19.446;2023-12-28T06:58:38;99382.65;;;0.96;100.00
70971;BME280;58632;51.718;19.446;2023-12-28T07:01:04;99383.90;;;1.08;100.00
70971;BME280;58632;51.718;19.446;2023-12-28T07:03:29;99388.45;;;1.21;100.00
70971;BME280;58632;51.718;19.446;2023-12-28T07:05:58;99381.90;;;1.34;100.00
70971;BME280;58632;51.718;19.446;2023-12-28T07:08:23;99378.66;;;1.47;100.00
70971;BME280;58632;51.718;19.446;2023-12-28T07:10:49;99370.05;;;1.60;100.00
70971;BME280;58632;51.718;19.446;2023-12-28T07:13:14;99361.35;;;1.70;100.00
70971;BME280;58632;51.718;19.446;2023-12-28T07:15:39;99349.18;;;1.78;100.00
70971;BME280;58632;51.718;19.446;2023-12-28T07:18:05;99347.86;;;1.86;100.00
70971;BME280;58632;51.718;19.446;2023-12-28T07:20:33;99346.30;;;1.98;100.00
70971;BME280;58632;51.718;19.446;2023-12-28T07:22:58;99349.72;;;2.10;100.00
70971;BME280;58632;51.718;19.446;2023-12-28T07:25:24;99346.59;;;2.23;100.00
70971;BME280;58632;51.718;19.446;2023-12-28T07:27:49;99359.38;;;2.36;100.00
70971;BME280;58632;51.718;19.446;2023-12-28T07:30:15;99370.08;;;2.48;100.00
70971;BME280;58632;51.718;19.446;2023-12-28T07:32:42;99374.45;;;2.60;100.00
70971;BME280;58632;51.718;19.446;2023-12-28T07:35:07;99378.43;;;2.70;100.00
70971;BME280;58632;51.718;19.446;2023-12-28T07:37:35;99389.02;;;2.83;100.00
70971;BME280;58632;51.718;19.446;2023-12-28T07:40:01;99395.67;;;2.99;100.00
70971;BME280;58632;51.718;19.446;2023-12-28T07:42:28;99392.91;;;3.12;100.00
70971;BME280;58632;51.718;19.446;2023-12-28T07:44:53;99396.42;;;3.29;100.00
70971;BME280;58632;51.718;19.446;2023-12-28T07:47:19;99398.95;;;3.45;100.00
70971;BME280;58632;51.718;19.446;2023-12-28T07:49:44;99400.60;;;3.59;100.00
70971;BME280;58632;51.718;19.446;2023-12-28T07:52:12;99382.89;;;3.76;100.00
70971;BME280;58632;51.718;19.446;2023-12-28T07:54:38;99381.20;;;3.93;100.00
70971;BME280;58632;51.718;19.446;2023-12-28T07:57:03;99382.55;;;4.12;100.00
70971;BME280;58632;51.718;19.446;2023-12-28T07:59:28;99376.54;;;4.34;100.00
70971;BME280;58632;51.718;19.446;2023-12-28T08:01:54;99376.92;;;4.59;100.00
70971;BME280;58632;51.718;19.446;2023-12-28T08:04:20;99380.61;;;4.89;100.00
70971;BME280;58632;51.718;19.446;2023-12-28T08:06:46;99379.50;;;5.19;100.00
70971;BME280;58632;51.718;19.446;2023-12-28T08:09:11;99386.38;;;5.44;100.00
70971;BME280;58632;51.718;19.446;2023-12-28T08:11:37;99384.39;;;5.65;100.00
70971;BME280;58632;51.718;19.446;2023-12-28T08:14:02;99385.23;;;5.84;100.00
70971;BME280;58632;51.718;19.446;2023-12-28T08:16:27;99388.70;;;6.04;100.00
70971;BME280;58632;51.718;19.446;2023-12-28T08:18:55;99385.23;;;6.12;100.00
70971;BME280;58632;51.718;19.446;2023-12-28T08:21:20;99400.81;;;6.19;100.00
70971;BME280;58632;51.718;19.446;2023-12-28T08:23:46;99388.42;;;6.21;100.00
70971;BME280;58632;51.718;19.446;2023-12-28T08:26:11;99390.20;;;6.19;100.00
70971;BME280;58632;51.718;19.446;2023-12-28T08:28:37;99404.27;;;6.22;100.00
70971;BME280;58632;51.718;19.446;2023-12-28T08:31:02;99407.40;;;6.27;100.00
70971;BME280;58632;51.718;19.446;2023-12-28T08:33:28;99406.65;;;6.28;100.00
70971;BME280;58632;51.718;19.446;2023-12-28T08:35:53;99399.48;;;6.33;100.00
70971;BME280;58632;51.718;19.446;2023-12-28T08:38:19;99408.34;;;6.40;100.00
70971;BME280;58632;51.718;19.446;2023-12-28T08:40:44;99399.58;;;6.50;100.00
70971;BME280;58632;51.718;19.446;2023-12-28T08:43:10;99400.84;;;6.60;100.00
70971;BME280;58632;51.718;19.446;2023-12-28T08:45:35;99400.07;;;6.73;100.00
70971;BME280;58632;51.718;19.446;2023-12-28T08:48:01;99399.09;;;6.88;100.00
70971;BME280;58632;51.718;19.446;2023-12-28T08:50:26;99403.55;;;7.00;100.00
70971;BME280;58632;51.718;19.446;2023-12-28T08:52:52;99401.79;;;7.12;100.00
70971;BME280;58632;51.718;19.446;2023-12-28T08:55:17;99414.95;;;7.24;100.00
70971;BME280;58632;51.718;19.446;2023-12-28T08:57:43;99419.70;;;7.29;100.00
70971;BME280;58632;51.718;19.446;2023-12-28T09:00:09;99421.94;;;7.27;100.00
70971;BME280;58632;51.718;19.446;2023-12-28T09:02:35;99424.25;;;7.28;100.00
70971;BME280;58632;51.718;19.446;2023-12-28T09:05:00;99429.06;;;7.29;100.00
70971;BME280;58632;51.718;19.446;2023-12-28T09:07:26;99433.56;;;7.31;100.00
70971;BME280;58632;51.718;19.446;2023-12-28T09:09:51;99435.77;;;7.31;100.00
70971;BME280;58632;51.718;19.446;2023-12-28T09:12:17;99437.27;;;7.30;100.00
70971;BME280;58632;51.718;19.446;2023-12-28T09:14:42;99436.02;;;7.30;100.00
70971;BME280;58632;51.718;19.446;2023-12-28T09:17:08;99430.67;;;7.30;100.00
70971;BME280;58632;51.718;19.446;2023-12-28T09:19:33;99422.88;;;7.29;100.00
70971;BME280;58632;51.718;19.446;2023-12-28T09:21:59;99427.08;;;7.26;100.00
70971;BME280;58632;51.718;19.446;2023-12-28T09:24:24;99430.04;;;7.27;100.00
70971;BME280;58632;51.718;19.446;2023-12-28T09:26:50;99422.77;;;7.28;100.00
70971;BME280;58632;51.718;19.446;2023-12-28T09:29:15;99412.96;;;7.31;100.00
70971;BME280;58632;51.718;19.446;2023-12-28T09:31:41;99414.88;;;7.32;100.00
70971;BME280;58632;51.718;19.446;2023-12-28T09:34:06;99414.35;;;7.37;100.00
70971;BME280;58632;51.718;19.446;2023-12-28T09:36:32;99426.25;;;7.38;100.00
70971;BME280;58632;51.718;19.446;2023-12-28T09:38:57;99433.48;;;7.36;100.00
70971;BME280;58632;51.718;19.446;2023-12-28T09:41:26;99429.36;;;7.31;100.00
70971;BME280;58632;51.718;19.446;2023-12-28T09:46:46;99418.16;;;7.29;100.00
70971;BME280;58632;51.718;19.446;2023-12-28T09:49:12;99413.00;;;7.27;100.00
70971;BME280;58632;51.718;19.446;2023-12-28T09:51:38;99414.22;;;7.24;100.00
70971;BME280;58632;51.718;19.446;2023-12-28T09:54:06;99418.60;;;7.23;100.00
70971;BME280;58632;51.718;19.446;2023-12-28T09:56:32;99418.17;;;7.22;100.00
70971;BME280;58632;51.718;19.446;2023-12-28T09:58:58;99416.05;;;7.25;100.00
70971;BME280;58632;51.718;19.446;2023-12-28T10:01:24;99408.20;;;7.28;100.00
70971;BME280;58632;51.718;19.446;2023-12-28T10:03:49;99410.35;;;7.33;100.00
70971;BME280;58632;51.718;19.446;2023-12-28T10:06:15;99409.36;;;7.38;100.00
70971;BME280;58632;51.718;19.446;2023-12-28T10:08:47;99405.33;;;7.47;100.00
70971;BME280;58632;51.718;19.446;2023-12-28T10:11:16;99406.02;;;7.58;100.00
70971;BME280;58632;51.718;19.446;2023-12-28T10:13:42;99407.20;;;7.69;100.00
70971;BME280;58632;51.718;19.446;2023-12-28T10:16:11;99418.73;;;7.72;100.00
70971;BME280;58632;51.718;19.446;2023-12-28T10:18:43;99416.73;;;7.79;100.00
70971;BME280;58632;51.718;19.446;2023-12-28T10:21:09;99403.67;;;7.82;100.00
70971;BME280;58632;51.718;19.446;2023-12-28T10:23:35;99403.71;;;7.89;100.00
70971;BME280;58632;51.718;19.446;2023-12-28T10:26:00;99407.55;;;7.96;100.00
70971;BME280;58632;51.718;19.446;2023-12-28T10:28:27;99408.02;;;7.97;100.00
70971;BME280;58632;51.718;19.446;2023-12-28T10:30:55;99400.46;;;8.00;100.00
70971;BME280;58632;51.718;19.446;2023-12-28T10:33:21;99383.48;;;8.01;100.00
70971;BME280;58632;51.718;19.446;2023-12-28T10:35:46;99382.67;;;8.04;100.00
70971;BME280;58632;51.718;19.446;2023-12-28T10:38:15;99377.45;;;8.10;100.00
70971;BME280;58632;51.718;19.446;2023-12-28T10:40:41;99382.27;;;8.19;100.00
70971;BME280;58632;51.718;19.446;2023-12-28T10:43:07;99390.81;;;8.23;100.00
70971;BME280;58632;51.718;19.446;2023-12-28T10:45:33;99396.41;;;8.25;100.00
70971;BME280;58632;51.718;19.446;2023-12-28T10:50:26;99403.02;;;8.24;100.00
70971;BME280;58632;51.718;19.446;2023-12-28T10:52:53;99400.08;;;8.23;100.00
70971;BME280;58632;51.718;19.446;2023-12-28T10:55:32;99401.08;;;8.21;100.00
70971;BME280;58632;51.718;19.446;2023-12-28T10:58:05;99406.21;;;8.21;100.00
70971;BME280;58632;51.718;19.446;2023-12-28T11:00:36;99402.93;;;8.19;100.00
70971;BME280;58632;51.718;19.446;2023-12-28T11:03:06;99399.02;;;8.16;100.00
70971;BME280;58632;51.718;19.446;2023-12-28T11:05:34;99405.56;;;8.11;100.00
70971;BME280;58632;51.718;19.446;2023-12-28T11:08:01;99396.63;;;8.07;100.00
70971;BME280;58632;51.718;19.446;2023-12-28T11:10:28;99404.25;;;8.05;100.00
70971;BME280;58632;51.718;19.446;2023-12-28T11:12:56;99406.14;;;8.02;100.00
70971;BME280;58632;51.718;19.446;2023-12-28T11:15:22;99406.85;;;7.98;100.00
70971;BME280;58632;51.718;19.446;2023-12-28T11:17:48;99410.71;;;7.98;100.00
70971;BME280;58632;51.718;19.446;2023-12-28T11:20:14;99411.91;;;8.02;100.00
70971;BME280;58632;51.718;19.446;2023-12-28T11:22:40;99410.89;;;8.03;100.00
70971;BME280;58632;51.718;19.446;2023-12-28T11:25:06;99409.15;;;8.03;100.00
70971;BME280;58632;51.718;19.446;2023-12-28T11:27:34;99407.91;;;8.05;100.00
70971;BME280;58632;51.718;19.446;2023-12-28T11:30:00;99401.89;;;8.08;100.00
70971;BME280;58632;51.718;19.446;2023-12-28T11:32:26;99404.42;;;8.07;100.00
70971;BME280;58632;51.718;19.446;2023-12-28T11:34:56;99402.13;;;8.06;100.00
70971;BME280;58632;51.718;19.446;2023-12-28T11:37:21;99390.05;;;8.08;100.00
70971;BME280;58632;51.718;19.446;2023-12-28T11:39:48;99390.91;;;8.08;100.00
70971;BME280;58632;51.718;19.446;2023-12-28T11:42:18;99382.33;;;8.07;100.00
70971;BME280;58632;51.718;19.446;2023-12-28T11:44:44;99378.35;;;8.11;100.00
70971;BME280;58632;51.718;19.446;2023-12-28T11:47:13;99382.89;;;8.14;100.00
70971;BME280;58632;51.718;19.446;2023-12-28T11:49:38;99385.33;;;8.19;100.00
70971;BME280;58632;51.718;19.446;2023-12-28T11:52:05;99384.07;;;8.23;100.00
70971;BME280;58632;51.718;19.446;2023-12-28T11:54:31;99381.08;;;8.27;100.00
70971;BME280;58632;51.718;19.446;2023-12-28T11:56:57;99369.46;;;8.26;100.00
70971;BME280;58632;51.718;19.446;2023-12-28T11:59:22;99366.23;;;8.24;100.00
70971;BME280;58632;51.718;19.446;2023-12-28T12:01:51;99363.60;;;8.20;100.00
70971;BME280;58632;51.718;19.446;2023-12-28T12:04:17;99371.80;;;8.15;100.00
70971;BME280;58632;51.718;19.446;2023-12-28T12:06:42;99372.66;;;8.14;100.00
70971;BME280;58632;51.718;19.446;2023-12-28T12:09:08;99372.15;;;8.16;100.00
70971;BME280;58632;51.718;19.446;2023-12-28T12:11:36;99365.20;;;8.21;100.00
70971;BME280;58632;51.718;19.446;2023-12-28T12:14:02;99358.19;;;8.25;100.00
70971;BME280;58632;51.718;19.446;2023-12-28T12:16:30;99357.21;;;8.33;100.00
70971;BME280;58632;51.718;19.446;2023-12-28T12:18:56;99362.26;;;8.40;100.00
70971;BME280;58632;51.718;19.446;2023-12-28T12:21:23;99363.25;;;8.46;100.00
70971;BME280;58632;51.718;19.446;2023-12-28T12:23:48;99364.61;;;8.50;100.00
70971;BME280;58632;51.718;19.446;2023-12-28T12:26:17;99364.48;;;8.53;100.00
70971;BME280;58632;51.718;19.446;2023-12-28T12:28:42;99361.60;;;8.55;100.00
70971;BME280;58632;51.718;19.446;2023-12-28T12:31:08;99364.11;;;8.56;100.00
70971;BME280;58632;51.718;19.446;2023-12-28T12:33:34;99365.55;;;8.57;100.00
70971;BME280;58632;51.718;19.446;2023-12-28T12:35:59;99363.42;;;8.57;100.00
70971;BME280;58632;51.718;19.446;2023-12-28T12:38:25;99363.69;;;8.57;100.00
70971;BME280;58632;51.718;19.446;2023-12-28T12:40:51;99366.58;;;8.56;100.00
70971;BME280;58632;51.718;19.446;2023-12-28T12:43:16;99362.00;;;8.52;100.00
70971;BME280;58632;51.718;19.446;2023-12-28T12:45:44;99358.12;;;8.48;100.00
70971;BME280;58632;51.718;19.446;2023-12-28T12:48:11;99356.98;;;8.47;100.00
70971;BME280;58632;51.718;19.446;2023-12-28T12:50:36;99355.08;;;8.48;100.00
70971;BME280;58632;51.718;19.446;2023-12-28T12:53:04;99351.86;;;8.47;100.00